Time;durP1;ratioP1;P1;durP2;ratioP2;P2;SDS_P1;SDS_P2;PMS_P1;PMS_P2;Temp;Humidity;BMP_temperature;BMP_pressure;BME280_temperature;BME280_humidity;BME280_pressure;Samples;Min_cycle;Max_cycle;Signal;HPM_P1;HPM_P2
2020/12/04 00:02:13;;;;;;;97.62;31.15;;;;;;;-1.41;90.95;101014.23;1718430;83;22217;-64
2020/12/04 00:04:42;;;;;;;102.72;32.17;;;;;;;-1.41;90.96;101011.64;1718132;83;22197;-63
2020/12/04 00:07:13;;;;;;;106.22;34.83;;;;;;;-1.43;91.13;101025.36;1715312;83;21190;-62
2020/12/04 00:09:43;;;;;;;92.50;30.82;;;;;;;-1.44;91.25;101022.33;1713313;83;21139;-63
2020/12/04 00:12:11;;;;;;;94.60;31.90;;;;;;;-1.44;91.17;101019.75;1713390;83;21637;-63
2020/12/04 00:14:41;;;;;;;103.32;32.67;;;;;;;-1.45;91.39;101033.06;1713312;83;21158;-62
2020/12/04 00:17:09;;;;;;;111.85;35.88;;;;;;;-1.46;91.37;101030.45;1713262;83;21710;-62
2020/12/04 00:19:37;;;;;;;81.35;27.52;;;;;;;-1.45;91.49;101030.90;1712818;83;21131;-62
2020/12/04 00:22:04;;;;;;;81.35;28.83;;;;;;;-1.42;91.51;101018.95;1712966;83;21590;-62
2020/12/04 00:24:34;;;;;;;85.22;27.58;;;;;;;-1.43;91.57;101025.36;1712924;83;21211;-62
2020/12/04 00:27:02;;;;;;;103.07;31.57;;;;;;;-1.48;91.73;101017.06;1712681;83;21354;-62
2020/12/04 00:29:30;;;;;;;94.80;28.87;;;;;;;-1.48;91.82;101011.89;1712680;83;21179;-62
2020/12/04 00:31:59;;;;;;;79.00;27.98;;;;;;;-1.46;91.81;101011.08;1712793;83;21199;-63
2020/12/04 00:34:26;;;;;;;95.55;30.65;;;;;;;-1.46;91.91;101012.38;1712825;83;21143;-62
2020/12/04 00:36:54;;;;;;;78.22;27.52;;;;;;;-1.48;91.93;101002.85;1712962;83;21615;-63
2020/12/04 00:39:22;;;;;;;80.42;28.02;;;;;;;-1.48;92.10;101005.44;1712841;83;22099;-62
2020/12/04 00:41:50;;;;;;;89.58;27.02;;;;;;;-1.45;92.11;100999.47;1712779;83;21191;-63
2020/12/04 00:44:19;;;;;;;75.50;25.32;;;;;;;-1.40;92.01;101006.05;1712936;83;21144;-63
2020/12/04 00:46:47;;;;;;;83.72;28.07;;;;;;;-1.41;92.14;101013.36;1712893;83;21191;-63
2020/12/04 00:49:15;;;;;;;87.95;28.52;;;;;;;-1.45;92.18;101005.06;1712917;83;22204;-62
2020/12/04 00:51:43;;;;;;;93.87;31.57;;;;;;;-1.40;92.19;101002.17;1712821;83;21863;-62
2020/12/04 00:54:11;;;;;;;70.37;24.63;;;;;;;-1.43;92.22;101000.81;1712894;83;21151;-63
2020/12/04 00:56:40;;;;;;;86.20;27.20;;;;;;;-1.44;92.31;101000.38;1712830;83;21215;-63
2020/12/04 00:59:09;;;;;;;93.07;28.73;;;;;;;-1.44;92.41;101003.83;1702721;82;21221;-63
2020/12/04 01:01:39;;;;;;;83.62;29.30;;;;;;;-1.42;92.42;101003.88;1693302;84;21225;-63
2020/12/04 01:04:07;;;;;;;91.70;30.65;;;;;;;-1.41;92.38;100994.84;1693783;84;21558;-63
2020/12/04 01:06:36;;;;;;;93.37;31.80;;;;;;;-1.40;92.52;100990.55;1691909;83;21617;-64
2020/12/04 01:09:07;;;;;;;94.77;29.05;;;;;;;-1.44;92.56;100997.79;1685885;85;21661;-63
2020/12/04 01:11:37;;;;;;;92.22;31.80;;;;;;;-1.42;92.51;101006.03;1685858;85;21186;-63
2020/12/04 01:14:06;;;;;;;85.80;28.27;;;;;;;-1.41;92.60;100996.14;1685961;85;21222;-62
2020/12/04 01:16:34;;;;;;;58.98;19.37;;;;;;;-1.40;92.60;101007.34;1685910;85;21374;-63
2020/12/04 01:19:02;;;;;;;81.55;26.52;;;;;;;-1.41;92.63;101004.31;1685927;85;21194;-63
2020/12/04 01:21:30;;;;;;;87.05;28.52;;;;;;;-1.41;92.66;101008.19;1685913;85;21529;-62
2020/12/04 01:23:59;;;;;;;69.58;25.45;;;;;;;-1.39;92.66;101003.94;1685875;85;21181;-63
2020/12/04 01:26:27;;;;;;;86.90;30.35;;;;;;;-1.40;92.70;100994.42;1686040;85;21566;-63
2020/12/04 01:28:54;;;;;;;78.05;23.77;;;;;;;-1.43;92.76;100994.36;1685806;85;21649;-64
2020/12/04 01:31:22;;;;;;;90.47;30.10;;;;;;;-1.41;92.76;100991.39;1685893;85;21618;-62
2020/12/04 01:33:50;;;;;;;79.58;26.80;;;;;;;-1.36;92.76;100993.67;1685950;85;21151;-63
2020/12/04 01:36:17;;;;;;;92.80;31.68;;;;;;;-1.37;92.77;100991.94;1685880;85;21656;-63
2020/12/04 01:38:46;;;;;;;91.97;30.27;;;;;;;-1.38;92.78;100994.05;1685863;85;21191;-62
2020/12/04 01:41:14;;;;;;;92.27;31.45;;;;;;;-1.38;92.84;100984.61;1685842;85;21211;-63
2020/12/04 01:43:41;;;;;;;94.20;29.60;;;;;;;-1.39;92.78;100989.30;1685757;85;21275;-62
2020/12/04 01:46:09;;;;;;;72.62;24.67;;;;;;;-1.37;92.77;100990.64;1685995;85;21621;-63
2020/12/04 01:48:37;;;;;;;92.80;27.93;;;;;;;-1.38;92.75;100975.56;1685893;85;21127;-63
2020/12/04 01:51:06;;;;;;;82.00;28.45;;;;;;;-1.38;92.81;100975.95;1686104;85;21693;-62
2020/12/04 01:53:34;;;;;;;83.33;28.75;;;;;;;-1.37;92.86;100976.44;1685995;85;21265;-62
2020/12/04 01:56:02;;;;;;;92.22;29.00;;;;;;;-1.36;92.80;100979.45;1686029;85;21680;-62
2020/12/04 01:58:30;;;;;;;100.05;30.80;;;;;;;-1.36;92.85;100975.58;1688534;83;21157;-62
2020/12/04 02:00:59;;;;;;;89.92;29.95;;;;;;;-1.37;92.84;100973.42;1709754;82;21612;-61
2020/12/04 02:03:26;;;;;;;84.00;29.10;;;;;;;-1.36;92.90;100969.13;1709867;83;21167;-61
2020/12/04 02:06:03;;;;;;;88.50;30.75;;;;;;;-1.33;92.88;100976.97;1709731;83;22093;-62
2020/12/04 02:08:45;;;;;;;77.17;25.85;;;;;;;-1.35;92.93;100980.80;1705585;83;21453;-61
2020/12/04 02:11:19;;;;;;;67.87;23.62;;;;;;;-1.38;92.95;100982.42;1705121;84;21658;-63
2020/12/04 02:13:51;;;;;;;80.75;27.90;;;;;;;-1.38;92.99;100979.84;1705016;84;21128;-63
2020/12/04 02:16:23;;;;;;;89.45;30.48;;;;;;;-1.37;93.12;100992.80;1685590;84;21200;-63
2020/12/04 02:18:51;;;;;;;88.67;30.70;;;;;;;-1.37;93.10;100984.19;1704937;84;21387;-63
2020/12/04 02:21:19;;;;;;;84.22;28.77;;;;;;;-1.34;93.15;100992.00;1704894;84;21179;-63
2020/12/04 02:23:50;;;;;;;87.05;26.30;;;;;;;-1.32;93.14;100998.09;1704937;84;21108;-62
2020/12/04 02:26:22;;;;;;;81.22;26.20;;;;;;;-1.30;93.08;101000.30;1704924;84;21171;-63
2020/12/04 02:28:50;;;;;;;89.83;29.15;;;;;;;-1.30;93.10;100992.55;1705155;84;21650;-62
2020/12/04 02:31:21;;;;;;;72.95;25.45;;;;;;;-1.31;93.13;100992.97;1704931;84;21396;-63
2020/12/04 02:33:48;;;;;;;77.60;27.27;;;;;;;-1.29;93.17;100990.40;1704869;84;21971;-63
2020/12/04 02:36:16;;;;;;;71.37;25.05;;;;;;;-1.25;93.11;100993.52;1704944;82;21852;-63
2020/12/04 02:38:44;;;;;;;85.90;27.27;;;;;;;-1.27;93.08;100992.22;1704910;82;21128;-62
2020/12/04 02:41:13;;;;;;;67.62;22.98;;;;;;;-1.24;93.07;100995.30;1704901;84;21159;-62
2020/12/04 02:43:41;;;;;;;74.60;24.80;;;;;;;-1.23;93.06;101008.66;1704911;84;21203;-62
2020/12/04 02:46:09;;;;;;;75.30;26.07;;;;;;;-1.23;92.96;100993.15;1704840;84;21595;-63
2020/12/04 02:48:37;;;;;;;78.65;28.07;;;;;;;-1.24;92.98;100988.83;1704970;84;21571;-63
2020/12/04 02:51:08;;;;;;;88.87;27.42;;;;;;;-1.27;93.04;100980.98;1704944;84;21160;-63
2020/12/04 02:53:37;;;;;;;70.60;23.52;;;;;;;-1.31;93.14;100986.94;1704876;84;21179;-63
2020/12/04 02:56:04;;;;;;;75.50;25.08;;;;;;;-1.28;93.13;100977.95;1704981;84;21623;-63
2020/12/04 02:58:32;;;;;;;70.05;21.90;;;;;;;-1.28;93.17;100976.66;1704799;84;21196;-62
2020/12/04 03:01:01;;;;;;;70.65;23.12;;;;;;;-1.28;93.22;100983.13;1704953;84;21164;-63
2020/12/04 03:03:30;;;;;;;76.60;26.12;;;;;;;-1.25;93.21;100975.44;1700803;84;21649;-63
2020/12/04 03:05:58;;;;;;;75.15;25.17;;;;;;;-1.24;93.21;100973.32;1676565;85;21165;-63
2020/12/04 03:08:26;;;;;;;79.37;25.90;;;;;;;-1.24;93.19;100975.91;1685222;84;21314;-62
2020/12/04 03:10:56;;;;;;;84.58;27.05;;;;;;;-1.23;93.19;100976.34;1689708;84;21564;-63
2020/12/04 03:13:24;;;;;;;79.07;26.90;;;;;;;-1.22;93.21;100976.82;1689870;84;21206;-62
2020/12/04 03:15:54;;;;;;;77.55;23.90;;;;;;;-1.19;93.10;100970.85;1689633;84;21428;-62
2020/12/04 03:18:22;;;;;;;79.87;25.82;;;;;;;-1.21;93.09;100968.22;1689677;84;21657;-62
2020/12/04 03:20:50;;;;;;;79.03;25.75;;;;;;;-1.22;93.16;100971.66;1689521;84;22266;-62
2020/12/04 03:23:17;;;;;;;82.05;28.12;;;;;;;-1.22;93.16;100972.05;1689609;84;21190;-63
2020/12/04 03:25:48;;;;;;;78.78;25.20;;;;;;;-1.23;93.19;100969.89;1689498;84;21174;-64
2020/12/04 03:28:16;;;;;;;91.90;29.03;;;;;;;-1.24;93.22;100972.42;1689808;84;21631;-62
2020/12/04 03:30:43;;;;;;;98.12;28.90;;;;;;;-1.23;93.28;100973.77;1689510;84;22212;-62
2020/12/04 03:33:11;;;;;;;83.47;27.45;;;;;;;-1.23;93.34;100969.89;1689608;84;23532;-63
2020/12/04 03:35:40;;;;;;;72.87;26.57;;;;;;;-1.21;93.29;100985.45;1689506;83;21264;-63
2020/12/04 03:38:08;;;;;;;82.82;26.23;;;;;;;-1.21;93.29;100972.09;1689654;84;22278;-63
2020/12/04 03:40:36;;;;;;;87.05;26.27;;;;;;;-1.21;93.31;100967.35;1689485;83;21182;-62
2020/12/04 03:43:06;;;;;;;87.60;27.17;;;;;;;-1.23;93.34;100962.13;1689635;84;21646;-62
2020/12/04 03:45:34;;;;;;;92.65;28.25;;;;;;;-1.21;93.41;100973.39;1689482;84;21304;-64
2020/12/04 03:48:02;;;;;;;78.00;26.52;;;;;;;-1.19;93.38;100961.38;1689470;84;21661;-62
2020/12/04 03:50:30;;;;;;;81.32;27.55;;;;;;;-1.16;93.30;100958.86;1689572;84;21167;-63
2020/12/04 03:52:58;;;;;;;81.15;27.77;;;;;;;-1.16;93.41;100961.44;1689620;84;21662;-63
2020/12/04 03:55:26;;;;;;;84.35;27.90;;;;;;;-1.20;93.48;100960.91;1689664;84;21183;-64
2020/12/04 03:57:54;;;;;;;76.10;24.60;;;;;;;-1.18;93.42;100962.24;1689686;84;22296;-63
2020/12/04 04:00:22;;;;;;;65.05;23.85;;;;;;;-1.18;93.42;100972.16;1710778;83;21217;-62
2020/12/04 04:02:50;;;;;;;73.72;26.57;;;;;;;-1.19;93.43;100969.13;1689691;84;21650;-62
2020/12/04 04:05:19;;;;;;;87.47;27.77;;;;;;;-1.17;93.49;100964.88;1689670;84;21134;-62
2020/12/04 04:07:47;;;;;;;73.30;23.77;;;;;;;-1.17;93.56;100967.46;1689491;84;21590;-62
2020/12/04 04:10:15;;;;;;;89.32;29.20;;;;;;;-1.16;93.52;100969.19;1689682;84;21319;-62
2020/12/04 04:12:43;;;;;;;81.80;26.55;;;;;;;-1.15;93.52;100958.04;1689531;84;21162;-62
2020/12/04 04:15:11;;;;;;;71.45;22.85;;;;;;;-1.18;93.58;100963.11;1689688;84;21567;-61
2020/12/04 04:17:39;;;;;;;81.72;28.80;;;;;;;-1.15;93.64;100958.04;1689648;84;22050;-62
2020/12/04 04:20:07;;;;;;;77.92;26.52;;;;;;;-1.13;93.55;100966.70;1689657;84;21135;-61
2020/12/04 04:22:35;;;;;;;91.82;31.10;;;;;;;-1.13;93.59;100964.12;1689564;84;21406;-62
2020/12/04 04:25:02;;;;;;;92.55;32.35;;;;;;;-1.16;93.72;100966.61;1689708;84;21625;-62
2020/12/04 04:27:30;;;;;;;83.17;25.23;;;;;;;-1.12;93.62;100967.14;1689570;84;21202;-62
2020/12/04 04:29:58;;;;;;;82.70;26.62;;;;;;;-1.12;93.66;100962.41;1689658;84;21189;-62
2020/12/04 04:32:26;;;;;;;88.58;31.62;;;;;;;-1.13;93.74;100962.83;1689685;84;21201;-61
2020/12/04 04:34:54;;;;;;;76.65;25.30;;;;;;;-1.12;93.74;100958.09;1689825;83;22283;-61
2020/12/04 04:37:22;;;;;;;82.82;28.50;;;;;;;-1.13;93.76;100958.95;1689713;84;21242;-61
2020/12/04 04:39:50;;;;;;;78.62;28.80;;;;;;;-1.15;93.89;100959.72;1689743;83;21214;-61
2020/12/04 04:42:18;;;;;;;88.12;25.27;;;;;;;-1.13;93.97;100959.34;1689737;84;21736;-62
2020/12/04 04:44:46;;;;;;;71.85;25.25;;;;;;;-1.14;94.00;100961.06;1689781;84;21195;-62
2020/12/04 04:47:20;;;;;;;68.17;24.02;;;;;;;-1.13;94.07;100962.83;1689645;84;21314;-62
2020/12/04 04:49:51;;;;;;;81.82;29.70;;;;;;;-1.10;94.02;100959.02;1689636;84;21159;-62
2020/12/04 04:52:19;;;;;;;74.70;26.20;;;;;;;-1.11;94.06;100959.83;1689652;84;21646;-61
2020/12/04 04:54:49;;;;;;;94.58;32.78;;;;;;;-1.13;94.12;100955.47;1689722;84;21593;-62
2020/12/04 04:57:23;;;;;;;75.78;25.77;;;;;;;-1.13;94.21;100961.53;1689665;84;21183;-62
2020/12/04 04:59:54;;;;;;;66.62;24.85;;;;;;;-1.10;94.18;100959.02;1708912;83;21387;-61
2020/12/04 05:02:22;;;;;;;88.80;31.82;;;;;;;-1.10;94.25;100960.30;1718455;83;21178;-62
2020/12/04 05:04:54;;;;;;;81.30;29.52;;;;;;;-1.08;94.25;100968.97;1718451;83;22321;-62
2020/12/04 05:07:32;;;;;;;85.38;31.23;;;;;;;-1.07;94.33;100969.41;1718249;83;21182;-62
2020/12/04 05:10:18;;;;;;;84.70;31.07;;;;;;;-1.09;94.29;100971.08;1718455;83;21586;-62
2020/12/04 05:13:01;;;;;;;70.42;25.75;;;;;;;-1.06;94.32;100971.18;1718388;83;22189;-60
2020/12/04 05:15:30;;;;;;;84.52;30.60;;;;;;;-1.04;94.32;100962.57;1718395;83;21154;-63
2020/12/04 05:18:17;;;;;;;85.42;32.45;;;;;;;-1.03;94.32;100959.17;1718348;83;21171;-62
2020/12/04 05:20:51;;;;;;;87.27;31.80;;;;;;;-1.00;94.29;100957.51;1718475;83;21164;-62
2020/12/04 05:23:19;;;;;;;78.70;27.37;;;;;;;-1.10;94.23;100948.67;1718645;83;22116;-63
2020/12/04 05:25:52;;;;;;;86.75;32.83;;;;;;;-1.08;94.27;100954.76;1718471;83;22267;-63
2020/12/04 05:28:23;;;;;;;78.28;29.60;;;;;;;-1.06;94.37;100960.84;1718334;83;21136;-62
2020/12/04 05:31:09;;;;;;;87.62;33.20;;;;;;;-1.07;94.34;100959.08;1718621;83;21123;-63
2020/12/04 05:33:40;;;;;;;76.15;29.12;;;;;;;-1.09;94.36;100955.58;1718313;83;21162;-60
2020/12/04 05:36:08;;;;;;;88.73;31.97;;;;;;;-1.12;94.45;100964.98;1718735;83;21214;-62
2020/12/04 05:38:36;;;;;;;83.30;31.25;;;;;;;-1.12;94.46;100968.44;1718292;83;22372;-63
2020/12/04 05:41:06;;;;;;;77.92;27.58;;;;;;;-1.09;94.48;100963.33;1718402;83;21175;-62
2020/12/04 05:43:37;;;;;;;103.72;37.70;;;;;;;-1.08;94.48;100956.47;1718547;83;21183;-63
2020/12/04 05:46:19;;;;;;;79.42;26.70;;;;;;;-1.06;94.51;100962.13;1718712;83;21594;-63
2020/12/04 05:49:08;;;;;;;100.65;36.60;;;;;;;-1.03;94.53;100965.20;1718320;83;21156;-63
2020/12/04 05:51:39;;;;;;;91.55;33.63;;;;;;;-1.00;94.42;100960.09;1718502;83;21436;-63
2020/12/04 05:54:10;;;;;;;91.55;33.10;;;;;;;-0.97;94.41;100974.80;1718228;83;21191;-63
2020/12/04 05:56:39;;;;;;;;;;;;;;;-0.98;94.40;100967.89;1721031;83;21174;-63
2020/12/04 05:59:10;;;;;;;86.55;30.35;;;;;;;-1.00;94.48;100979.48;1708140;83;20245;-63
2020/12/04 06:01:44;;;;;;;95.92;32.73;;;;;;;-0.99;94.45;100976.47;1642665;84;21193;-62
2020/12/04 06:04:18;;;;;;;77.00;24.35;;;;;;;-0.99;94.45;100975.18;1694868;83;21227;-66
2020/12/04 06:06:46;;;;;;;83.90;30.48;;;;;;;-1.02;94.55;100973.83;1690136;83;21191;-64
2020/12/04 06:09:15;;;;;;;78.55;28.47;;;;;;;-1.02;94.58;100974.69;1696728;83;21139;-65
2020/12/04 06:11:46;;;;;;;94.65;33.05;;;;;;;-0.99;94.53;100977.77;1725921;83;21230;-65
2020/12/04 06:14:19;;;;;;;91.10;33.92;;;;;;;-0.97;94.59;100974.80;1726120;83;21167;-64
2020/12/04 06:17:05;;;;;;;89.07;33.05;;;;;;;-0.95;94.59;100987.35;1725818;83;21382;-65
2020/12/04 06:19:36;;;;;;;85.28;30.65;;;;;;;-0.94;94.58;100982.23;1724729;83;21595;-67
2020/12/04 06:22:11;;;;;;;96.10;31.55;;;;;;;-0.92;94.53;100993.88;1724483;83;21594;-65
2020/12/04 06:25:00;;;;;;;84.92;31.75;;;;;;;-0.94;94.62;100998.17;1724278;83;22141;-65
2020/12/04 06:27:40;;;;;;;90.92;33.92;;;;;;;-0.94;94.60;101001.62;1724203;83;21679;-66
2020/12/04 06:30:11;;;;;;;83.78;29.35;;;;;;;-0.93;94.56;101003.78;1724376;83;21662;-65
2020/12/04 06:32:48;;;;;;;84.20;32.05;;;;;;;-0.95;94.70;101014.50;1724259;83;21207;-64
2020/12/04 06:35:42;;;;;;;90.62;32.05;;;;;;;-0.94;94.67;101004.62;1724508;83;21586;-65
2020/12/04 06:38:39;;;;;;;104.45;35.43;;;;;;;-0.93;94.71;101007.66;1724294;83;21175;-66
2020/12/04 06:41:26;;;;;;;94.75;33.92;;;;;;;-0.94;94.74;100996.87;1723685;83;21152;-65
2020/12/04 06:44:07;;;;;;;80.72;30.70;;;;;;;-0.92;94.73;101006.80;1724437;83;22180;-65
2020/12/04 06:46:49;;;;;;;86.53;27.73;;;;;;;-0.91;94.65;101009.86;1722443;83;21156;-66
2020/12/04 06:52:21;;;;;;;82.45;30.70;;;;;;;-0.93;94.78;100999.91;1724426;83;21226;-64
2020/12/04 06:54:51;;;;;;;98.20;31.50;;;;;;;-0.94;94.84;101012.39;1724479;83;21586;-64
2020/12/04 06:57:23;;;;;;;98.00;32.45;;;;;;;-0.96;94.90;101010.18;1724347;83;21373;-66
2020/12/04 06:59:51;;;;;;;96.22;34.35;;;;;;;-0.96;94.99;101012.77;1715181;81;21610;-68
2020/12/04 07:02:21;;;;;;;87.88;30.70;;;;;;;-0.98;95.01;101011.85;1696655;84;21241;-65
2020/12/04 07:04:51;;;;;;;86.80;31.90;;;;;;;-0.94;95.00;101013.68;1696987;84;21188;-66
2020/12/04 07:07:27;;;;;;;100.18;33.20;;;;;;;-0.95;95.03;101014.50;1696963;84;21196;-67
2020/12/04 07:09:59;;;;;;;96.22;34.35;;;;;;;-0.95;95.05;101017.09;1671464;84;21384;-67
2020/12/04 07:12:28;;;;;;;99.52;34.70;;;;;;;-0.92;94.97;101021.92;1662264;86;21131;-66
2020/12/04 07:14:59;;;;;;;80.87;29.18;;;;;;;-0.88;94.96;101011.22;1662150;86;21215;-66
2020/12/04 07:17:29;;;;;;;104.12;34.00;;;;;;;-0.86;94.96;101022.05;1662310;86;21127;-66
2020/12/04 07:24:36;;;;;;;98.85;32.25;;;;;;;-0.89;94.98;101023.28;1706622;81;21222;-71
2020/12/04 07:27:04;;;;;;;99.50;31.80;;;;;;;-0.88;94.96;101011.22;1674863;84;21231;-71
2020/12/04 07:29:37;;;;;;;78.15;26.97;;;;;;;-0.85;95.03;101021.66;1689476;83;22307;-70
2020/12/04 07:32:06;;;;;;;114.88;38.65;;;;;;;-0.90;95.07;101027.11;1672459;84;21243;-71
2020/12/04 07:34:38;;;;;;;96.08;35.40;;;;;;;-0.91;95.10;101026.67;1646987;82;28658;-71
2020/12/04 07:37:08;;;;;;;110.12;36.45;;;;;;;-0.86;95.12;101035.41;1635118;86;21420;-71
2020/12/04 07:39:39;;;;;;;95.23;30.97;;;;;;;-0.85;95.09;101032.88;1642297;86;21202;-71
2020/12/04 07:42:08;;;;;;;104.97;37.13;;;;;;;-0.81;95.08;101042.84;1636348;87;21641;-71
2020/12/04 07:44:41;;;;;;;109.45;38.95;;;;;;;-0.78;95.03;101033.89;1620352;85;21178;-72
2020/12/04 07:47:14;;;;;;;106.07;35.15;;;;;;;-0.76;94.93;101032.22;1621540;86;21187;-72
2020/12/04 07:49:52;;;;;;;109.57;37.33;;;;;;;-0.78;94.91;101031.30;1637060;87;22276;-73
2020/12/04 07:52:31;;;;;;;129.82;41.58;;;;;;;-0.79;94.89;101037.30;1596461;87;21275;-73
2020/12/04 07:55:02;;;;;;;113.72;35.95;;;;;;;-0.75;94.89;101044.73;1637273;87;21243;-72
2020/12/04 07:57:55;;;;;;;118.35;38.75;;;;;;;-0.73;94.89;101041.77;1633922;87;21272;-74
2020/12/04 08:00:23;;;;;;;113.85;37.48;;;;;;;-0.69;94.86;101044.45;1629540;87;21236;-72
2020/12/04 08:02:50;;;;;;;107.17;35.25;;;;;;;-0.69;94.82;101035.80;1636975;87;21403;-73
2020/12/04 08:05:22;;;;;;;113.75;38.00;;;;;;;-0.71;94.77;101042.25;1636463;87;21239;-71
2020/12/04 08:07:52;;;;;;;100.97;33.65;;;;;;;-0.72;94.73;101046.95;1636394;87;21203;-71
2020/12/04 08:10:21;;;;;;;114.25;35.45;;;;;;;-0.70;94.72;101045.27;1636992;87;21226;-72
2020/12/04 08:12:50;;;;;;;134.60;42.83;;;;;;;-0.71;94.77;101046.13;1636674;86;21247;-72
2020/12/04 08:15:19;;;;;;;110.63;37.25;;;;;;;-0.69;94.78;101046.14;1637354;87;21224;-72
2020/12/04 08:17:46;;;;;;;227.18;78.67;;;;;;;-0.69;94.67;101057.39;1637232;87;21240;-73
2020/12/04 08:20:18;;;;;;;148.90;45.55;;;;;;;-0.67;94.66;101044.08;1637130;87;21179;-72
2020/12/04 08:22:49;;;;;;;143.25;48.05;;;;;;;-0.66;94.73;101040.64;1636982;87;21180;-71
2020/12/04 08:25:25;;;;;;;147.20;47.30;;;;;;;-0.61;94.75;101052.81;1637145;87;21184;-71
2020/12/04 08:27:54;;;;;;;137.65;44.42;;;;;;;-0.61;94.67;101029.09;1637110;87;21691;-72
2020/12/04 08:30:27;;;;;;;157.27;56.45;;;;;;;-0.57;94.57;101028.77;1637031;87;21200;-73
2020/12/04 08:33:01;;;;;;;135.12;42.13;;;;;;;-0.58;94.57;101039.94;1637088;86;21208;-73
2020/12/04 08:35:38;;;;;;;158.78;54.20;;;;;;;-0.60;94.55;101039.02;1637110;87;21236;-74
2020/12/04 08:38:15;;;;;;;106.95;37.55;;;;;;;-0.61;94.53;101047.20;1637310;86;21168;-72
2020/12/04 08:40:46;;;;;;;117.87;41.28;;;;;;;-0.55;94.56;101049.05;1637310;87;21224;-72
2020/12/04 08:43:20;;;;;;;121.72;42.50;;;;;;;-0.56;94.50;101047.31;1637132;87;21640;-71
2020/12/04 08:45:52;;;;;;;122.90;43.50;;;;;;;-0.56;94.49;101050.77;1632363;87;21207;-72
2020/12/04 08:48:24;;;;;;;116.93;38.90;;;;;;;-0.55;94.45;101043.87;1632277;87;21232;-72
2020/12/04 08:50:56;;;;;;;110.53;32.90;;;;;;;-0.53;94.46;101032.75;1632455;87;21201;-72
2020/12/04 08:53:25;;;;;;;104.60;36.38;;;;;;;-0.52;94.48;101036.20;1632366;87;22320;-71
2020/12/04 08:55:55;;;;;;;136.92;46.42;;;;;;;-0.55;94.35;101038.70;1617250;87;21199;-71
2020/12/04 08:58:24;;;;;;;115.62;41.25;;;;;;;-0.53;94.35;101042.20;1632038;87;21231;-72
2020/12/04 09:00:54;;;;;;;115.28;39.78;;;;;;;-0.49;94.38;101038.84;1631879;87;21215;-71
2020/12/04 09:03:23;;;;;;;127.45;43.55;;;;;;;-0.48;94.40;101036.73;1632330;87;21179;-72
2020/12/04 09:05:50;;;;;;;118.20;39.42;;;;;;;-0.46;94.38;101032.44;1632216;87;21455;-71
2020/12/04 09:08:18;;;;;;;112.30;37.53;;;;;;;-0.45;94.33;101036.79;1632259;87;21696;-71
2020/12/04 09:10:46;;;;;;;116.40;41.65;;;;;;;-0.44;94.25;101043.70;1631980;87;21174;-72
2020/12/04 09:13:15;;;;;;;114.57;38.00;;;;;;;-0.46;94.19;101032.44;1632346;87;21644;-71
2020/12/04 09:15:45;;;;;;;112.40;37.80;;;;;;;-0.49;94.23;101041.44;1632325;87;21393;-72
2020/12/04 09:18:15;;;;;;;111.28;38.58;;;;;;;-0.49;94.23;101041.01;1632221;87;21222;-72
2020/12/04 09:20:43;;;;;;;99.83;33.63;;;;;;;-0.44;94.24;101034.25;1632128;87;22244;-71
2020/12/04 09:23:11;;;;;;;122.05;41.65;;;;;;;-0.46;94.26;101037.22;1632138;87;21170;-72
2020/12/04 09:25:39;;;;;;;114.72;40.38;;;;;;;-0.44;94.26;101034.64;1632010;87;21400;-72
2020/12/04 09:28:11;;;;;;;114.65;41.75;;;;;;;-0.43;94.15;101046.76;1631481;87;21253;-72
2020/12/04 09:30:39;;;;;;;87.92;29.23;;;;;;;-0.46;94.19;101047.57;1619419;87;22114;-72
2020/12/04 09:33:07;;;;;;;111.30;36.83;;;;;;;-0.44;94.16;101060.52;1587971;89;21209;-72
2020/12/04 09:35:35;;;;;;;130.55;44.70;;;;;;;-0.47;94.11;101048.81;1587872;89;21618;-72
2020/12/04 09:38:03;;;;;;;112.65;39.25;;;;;;;-0.46;94.15;101051.84;1588026;89;21817;-71
2020/12/04 09:40:34;;;;;;;147.43;49.63;;;;;;;-0.43;94.20;101056.69;1587949;90;21266;-72
2020/12/04 09:43:02;;;;;;;140.80;47.20;;;;;;;-0.40;94.17;101046.81;1588203;89;21270;-73
2020/12/04 09:45:29;;;;;;;111.50;40.23;;;;;;;-0.36;94.16;101045.19;1591848;90;21225;-72
2020/12/04 09:47:58;;;;;;;115.95;42.45;;;;;;;-0.32;94.03;101042.70;1592722;90;21198;-70
2020/12/04 09:50:25;;;;;;;119.57;43.55;;;;;;;-0.31;93.89;101052.20;1592677;90;21217;-72
2020/12/04 09:52:54;;;;;;;103.90;34.23;;;;;;;-0.34;93.90;101049.55;1592940;90;21823;-70
2020/12/04 09:55:23;;;;;;;145.05;52.65;;;;;;;-0.40;93.68;101046.81;1592910;90;22295;-74
2020/12/04 09:57:51;;;;;;;128.42;46.23;;;;;;;-0.44;93.75;101042.02;1592734;89;21612;-73
2020/12/04 10:00:20;;;;;;;152.30;54.75;;;;;;;-0.46;93.83;101035.02;1630769;87;21433;-73
2020/12/04 10:02:48;;;;;;;129.65;46.90;;;;;;;-0.43;93.81;101035.11;1637163;87;21208;-72
2020/12/04 10:05:15;;;;;;;144.62;50.65;;;;;;;-0.43;93.93;101036.41;1637200;87;21148;-73
2020/12/04 10:07:44;;;;;;;136.95;46.23;;;;;;;-0.38;93.97;101030.91;1637171;87;21496;-72
2020/12/04 10:10:12;;;;;;;129.50;45.52;;;;;;;-0.32;93.92;101030.15;1637103;87;21160;-72
2020/12/04 10:12:39;;;;;;;144.50;49.03;;;;;;;-0.34;93.93;101031.44;1637020;87;21256;-74
2020/12/04 10:15:07;;;;;;;135.10;42.00;;;;;;;-0.36;93.85;101033.11;1637163;87;21707;-72
2020/12/04 10:17:35;;;;;;;141.32;47.35;;;;;;;-0.40;93.82;101042.94;1636973;87;21180;-74
2020/12/04 10:20:02;;;;;;;128.25;45.78;;;;;;;-0.40;93.83;101043.36;1637135;87;21629;-72
2020/12/04 10:22:31;;;;;;;143.13;49.55;;;;;;;-0.39;93.91;101040.82;1637074;87;21573;-72
2020/12/04 10:25:03;;;;;;;143.85;53.33;;;;;;;-0.41;93.89;101042.49;1637114;87;21219;-73
2020/12/04 10:27:31;;;;;;;141.73;49.75;;;;;;;-0.43;93.88;101042.45;1637008;87;21217;-76
2020/12/04 10:29:59;;;;;;;121.75;43.23;;;;;;;-0.41;93.88;101045.08;1637005;87;21165;-73
2020/12/04 10:32:27;;;;;;;157.78;52.03;;;;;;;-0.38;93.89;101041.26;1637060;87;21968;-73
2020/12/04 10:34:57;;;;;;;136.55;45.20;;;;;;;-0.39;93.96;101047.29;1636903;87;21325;-75
2020/12/04 10:37:25;;;;;;;139.18;46.63;;;;;;;-0.39;93.85;101044.70;1636986;87;21679;-75
2020/12/04 10:39:53;;;;;;;134.67;47.78;;;;;;;-0.39;93.67;101033.45;1636932;86;21180;-72
2020/12/04 10:42:21;;;;;;;152.93;48.92;;;;;;;-0.44;93.83;101037.23;1636939;87;21639;-73
2020/12/04 10:44:48;;;;;;;109.25;32.67;;;;;;;-0.40;93.82;101028.70;1637069;86;21684;-74
2020/12/04 10:47:16;;;;;;;153.57;50.08;;;;;;;-0.38;93.88;101036.51;1636601;87;21219;-70
2020/12/04 10:49:44;;;;;;;128.55;42.60;;;;;;;-0.44;93.80;101030.36;1635840;87;21218;-76
2020/12/04 10:52:12;;;;;;;137.43;49.03;;;;;;;-0.43;93.78;101042.88;1610583;89;21695;-77
2020/12/04 10:54:40;;;;;;;124.10;42.85;;;;;;;-0.44;93.79;101033.34;1600472;87;21219;-77
2020/12/04 10:57:08;;;;;;;129.72;39.88;;;;;;;-0.45;93.75;101030.32;1636987;87;21642;-76
2020/12/04 10:59:37;;;;;;;121.05;39.45;;;;;;;-0.47;93.77;101038.47;1636916;87;21214;-77
2020/12/04 11:02:13;;;;;;;138.30;46.77;;;;;;;-0.47;93.79;101041.05;1634808;87;21205;-75
2020/12/04 11:07:22;;;;;;;155.25;48.17;;;;;;;-0.47;93.78;101028.11;1636952;87;21709;-74
2020/12/04 11:09:52;;;;;;;138.03;43.92;;;;;;;-0.44;93.87;101043.30;1635756;87;22273;-74
2020/12/04 11:12:19;;;;;;;141.18;46.13;;;;;;;-0.44;93.82;101043.70;1636876;86;21172;-72
2020/12/04 11:14:47;;;;;;;117.97;41.68;;;;;;;-0.40;93.75;101044.66;1637020;87;21709;-73
2020/12/04 11:17:15;;;;;;;127.17;41.53;;;;;;;-0.40;93.59;101041.64;1636999;87;21792;-72
2020/12/04 11:19:45;;;;;;;129.87;44.60;;;;;;;-0.40;93.58;101041.64;1637004;87;21179;-75
2020/12/04 11:24:49;;;;;;;132.97;42.00;;;;;;;-0.33;93.57;101030.58;1775674;79;22649;-74
2020/12/04 11:27:18;;;;;;;130.55;42.40;;;;;;;-0.39;93.49;101038.23;1748191;82;21603;-74
2020/12/04 11:29:47;;;;;;;155.65;49.13;;;;;;;-0.45;93.29;101033.77;1748184;81;21004;-72
2020/12/04 11:32:15;;;;;;;139.75;46.30;;;;;;;-0.45;93.29;101029.02;1722091;82;21622;-71
2020/12/04 11:34:43;;;;;;;155.67;50.92;;;;;;;-0.46;93.20;101031.14;1718325;83;21159;-74